Portada
Imágenes satélite Pronóstico 15 díasClimaPredicción Marítima Ciclones Rayo AeropuertosFAQ Noticias Acerca
El tiempo : Europa África América del Norte América del Sur Asia Australia-Oceanía Otros
Idiomas Contacto

Valencia, España

latitud: 39-30N, longitud: 000-28W, altitud: 69 m


METAR: LEVC 181600Z 17004KT 140V200 CAVOK 20/10 Q1024 NOSIG
TAF: LEVC 181100Z 1812/1912 25008KT 9999 FEW040 TX19/1813Z TN07/1906Z

Hora: 17:19 (16:19 UTC)

Observación

El informe se hizo hace 19 minutos, a las 16:00 UTC
Viento 4 kt del sur, variando entre sureste y sur-suroeste
Temperatura 20°C
Humedad 53%
Presión 1024 hPa
Visibilidad 10 km o más
sin nubes por debajo de 1500 m y sin presencia de cumulonimbus.

Cambiar las unidades

Pronóstico

El informe se hizo hace 5 horas y 19 minutos, a las 11:00 UTC
Pronóstico válido del 18 a las 12 UTC al 19 a las 12 UTC
Viento 8 kt del oeste-suroeste
Visibilidad 10 km o más
Escasas nubes a una altura de 4000 ft
La información que se ofrece en estas páginas está sujeta a una cláusula de exención de responsabilidad
El tiempo : Europa África América del Norte América del Sur Asia Australia-Oceanía Otros
Imágenes satélite Pronóstico 15 díasClimaPredicción Marítima Ciclones Rayo AeropuertosFAQ Idiomas Contacto Noticias Acerca